sensor_id;sensor_type;location;lat;lon;timestamp;P1;durP1;ratioP1;P2;durP2;ratioP2
71183;SDS011;58887;51.980;4.464;2023-06-14T00:01:17;2.16;;;2.16;;
71183;SDS011;58887;51.980;4.464;2023-06-14T00:03:45;2.46;;;2.46;;
71183;SDS011;58887;51.980;4.464;2023-06-14T00:06:12;2.32;;;2.32;;
71183;SDS011;58887;51.980;4.464;2023-06-14T00:08:38;2.54;;;2.54;;
71183;SDS011;58887;51.980;4.464;2023-06-14T00:11:04;2.44;;;2.44;;
71183;SDS011;58887;51.980;4.464;2023-06-14T00:13:30;86.29;;;86.29;;
71183;SDS011;58887;51.980;4.464;2023-06-14T00:15:56;228.93;;;228.93;;
71183;SDS011;58887;51.980;4.464;2023-06-14T00:18:22;158.96;;;158.96;;
71183;SDS011;58887;51.980;4.464;2023-06-14T00:20:49;2.77;;;2.77;;
71183;SDS011;58887;51.980;4.464;2023-06-14T00:23:15;2.29;;;2.29;;
71183;SDS011;58887;51.980;4.464;2023-06-14T00:25:40;2.27;;;2.27;;
71183;SDS011;58887;51.980;4.464;2023-06-14T00:28:06;2.37;;;2.37;;
71183;SDS011;58887;51.980;4.464;2023-06-14T00:30:31;2.42;;;2.42;;
71183;SDS011;58887;51.980;4.464;2023-06-14T00:32:56;2.34;;;2.34;;
71183;SDS011;58887;51.980;4.464;2023-06-14T00:35:23;2.48;;;2.48;;
71183;SDS011;58887;51.980;4.464;2023-06-14T00:37:49;2.74;;;2.74;;
71183;SDS011;58887;51.980;4.464;2023-06-14T00:40:14;2.54;;;2.54;;
71183;SDS011;58887;51.980;4.464;2023-06-14T00:42:40;2.59;;;2.59;;
71183;SDS011;58887;51.980;4.464;2023-06-14T00:45:05;2.52;;;2.52;;
71183;SDS011;58887;51.980;4.464;2023-06-14T00:47:31;12.21;;;12.21;;
71183;SDS011;58887;51.980;4.464;2023-06-14T00:49:57;2.81;;;2.81;;
71183;SDS011;58887;51.980;4.464;2023-06-14T00:52:23;2.58;;;2.58;;
71183;SDS011;58887;51.980;4.464;2023-06-14T00:54:52;2.60;;;2.60;;
71183;SDS011;58887;51.980;4.464;2023-06-14T00:57:18;2.82;;;2.82;;
71183;SDS011;58887;51.980;4.464;2023-06-14T00:59:46;2.78;;;2.78;;
71183;SDS011;58887;51.980;4.464;2023-06-14T01:02:13;2.71;;;2.71;;
71183;SDS011;58887;51.980;4.464;2023-06-14T01:04:43;2.81;;;2.81;;
71183;SDS011;58887;51.980;4.464;2023-06-14T01:07:17;2.64;;;2.64;;
71183;SDS011;58887;51.980;4.464;2023-06-14T01:12:55;2.67;;;2.67;;
71183;SDS011;58887;51.980;4.464;2023-06-14T01:15:30;2.95;;;2.95;;
71183;SDS011;58887;51.980;4.464;2023-06-14T01:17:56;2.87;;;2.87;;
71183;SDS011;58887;51.980;4.464;2023-06-14T01:20:37;2.64;;;2.64;;
71183;SDS011;58887;51.980;4.464;2023-06-14T01:23:02;2.72;;;2.72;;
71183;SDS011;58887;51.980;4.464;2023-06-14T01:25:28;2.51;;;2.51;;
71183;SDS011;58887;51.980;4.464;2023-06-14T01:27:55;2.65;;;2.65;;
71183;SDS011;58887;51.980;4.464;2023-06-14T01:30:27;2.85;;;2.85;;
71183;SDS011;58887;51.980;4.464;2023-06-14T01:32:55;2.86;;;2.86;;
71183;SDS011;58887;51.980;4.464;2023-06-14T01:35:23;2.85;;;2.85;;
71183;SDS011;58887;51.980;4.464;2023-06-14T01:37:49;2.57;;;2.57;;
71183;SDS011;58887;51.980;4.464;2023-06-14T01:40:17;2.72;;;2.72;;
71183;SDS011;58887;51.980;4.464;2023-06-14T01:42:46;2.66;;;2.66;;
71183;SDS011;58887;51.980;4.464;2023-06-14T01:45:14;2.80;;;2.80;;
71183;SDS011;58887;51.980;4.464;2023-06-14T01:47:42;2.85;;;2.85;;
71183;SDS011;58887;51.980;4.464;2023-06-14T01:50:09;2.85;;;2.85;;
71183;SDS011;58887;51.980;4.464;2023-06-14T01:52:36;3.02;;;3.02;;
71183;SDS011;58887;51.980;4.464;2023-06-14T01:55:02;2.95;;;2.95;;
71183;SDS011;58887;51.980;4.464;2023-06-14T01:57:28;2.99;;;2.99;;
71183;SDS011;58887;51.980;4.464;2023-06-14T01:59:54;2.59;;;2.59;;
71183;SDS011;58887;51.980;4.464;2023-06-14T02:02:19;3.06;;;3.06;;
71183;SDS011;58887;51.980;4.464;2023-06-14T02:04:45;2.78;;;2.78;;
71183;SDS011;58887;51.980;4.464;2023-06-14T02:07:12;2.75;;;2.75;;
71183;SDS011;58887;51.980;4.464;2023-06-14T02:09:39;2.70;;;2.70;;
71183;SDS011;58887;51.980;4.464;2023-06-14T02:12:07;2.84;;;2.84;;
71183;SDS011;58887;51.980;4.464;2023-06-14T02:14:33;2.80;;;2.80;;
71183;SDS011;58887;51.980;4.464;2023-06-14T02:16:59;2.57;;;2.57;;
71183;SDS011;58887;51.980;4.464;2023-06-14T02:19:32;2.98;;;2.98;;
71183;SDS011;58887;51.980;4.464;2023-06-14T02:21:59;2.91;;;2.91;;
71183;SDS011;58887;51.980;4.464;2023-06-14T02:24:24;3.12;;;3.12;;
71183;SDS011;58887;51.980;4.464;2023-06-14T02:26:56;3.08;;;3.08;;
71183;SDS011;58887;51.980;4.464;2023-06-14T02:29:21;2.89;;;2.89;;
71183;SDS011;58887;51.980;4.464;2023-06-14T02:31:47;2.76;;;2.76;;
71183;SDS011;58887;51.980;4.464;2023-06-14T02:34:13;2.78;;;2.78;;
71183;SDS011;58887;51.980;4.464;2023-06-14T02:36:41;2.89;;;2.89;;
71183;SDS011;58887;51.980;4.464;2023-06-14T02:39:10;2.64;;;2.64;;
71183;SDS011;58887;51.980;4.464;2023-06-14T02:41:36;2.63;;;2.63;;
71183;SDS011;58887;51.980;4.464;2023-06-14T02:44:02;2.67;;;2.67;;
71183;SDS011;58887;51.980;4.464;2023-06-14T02:46:28;2.92;;;2.92;;
71183;SDS011;58887;51.980;4.464;2023-06-14T02:48:53;2.84;;;2.84;;
71183;SDS011;58887;51.980;4.464;2023-06-14T02:51:19;2.76;;;2.76;;
71183;SDS011;58887;51.980;4.464;2023-06-14T02:53:44;2.82;;;2.82;;
71183;SDS011;58887;51.980;4.464;2023-06-14T02:56:10;2.96;;;2.96;;
71183;SDS011;58887;51.980;4.464;2023-06-14T02:58:37;2.96;;;2.96;;
71183;SDS011;58887;51.980;4.464;2023-06-14T03:01:04;3.00;;;3.00;;
71183;SDS011;58887;51.980;4.464;2023-06-14T03:03:30;2.99;;;2.99;;
71183;SDS011;58887;51.980;4.464;2023-06-14T03:05:56;2.74;;;2.74;;
71183;SDS011;58887;51.980;4.464;2023-06-14T03:08:30;2.65;;;2.65;;
71183;SDS011;58887;51.980;4.464;2023-06-14T03:10:56;2.67;;;2.67;;
71183;SDS011;58887;51.980;4.464;2023-06-14T03:13:22;2.97;;;2.97;;
71183;SDS011;58887;51.980;4.464;2023-06-14T03:15:49;2.68;;;2.68;;
71183;SDS011;58887;51.980;4.464;2023-06-14T03:18:17;2.68;;;2.68;;
71183;SDS011;58887;51.980;4.464;2023-06-14T03:20:44;3.21;;;3.21;;
71183;SDS011;58887;51.980;4.464;2023-06-14T03:23:10;2.86;;;2.86;;
71183;SDS011;58887;51.980;4.464;2023-06-14T03:25:37;3.11;;;3.11;;
71183;SDS011;58887;51.980;4.464;2023-06-14T03:28:04;3.26;;;3.26;;
71183;SDS011;58887;51.980;4.464;2023-06-14T03:30:30;2.57;;;2.57;;
71183;SDS011;58887;51.980;4.464;2023-06-14T03:32:57;2.76;;;2.76;;
71183;SDS011;58887;51.980;4.464;2023-06-14T03:35:22;2.76;;;2.76;;
71183;SDS011;58887;51.980;4.464;2023-06-14T03:37:49;2.76;;;2.76;;
71183;SDS011;58887;51.980;4.464;2023-06-14T03:40:16;2.97;;;2.97;;
71183;SDS011;58887;51.980;4.464;2023-06-14T03:42:42;3.04;;;3.04;;
71183;SDS011;58887;51.980;4.464;2023-06-14T03:45:09;2.90;;;2.90;;
71183;SDS011;58887;51.980;4.464;2023-06-14T03:47:35;2.75;;;2.75;;
71183;SDS011;58887;51.980;4.464;2023-06-14T03:50:01;3.18;;;3.18;;
71183;SDS011;58887;51.980;4.464;2023-06-14T03:52:28;2.87;;;2.87;;
71183;SDS011;58887;51.980;4.464;2023-06-14T03:54:54;2.96;;;2.96;;
71183;SDS011;58887;51.980;4.464;2023-06-14T03:57:20;2.76;;;2.76;;
71183;SDS011;58887;51.980;4.464;2023-06-14T03:59:48;3.02;;;3.02;;
71183;SDS011;58887;51.980;4.464;2023-06-14T04:02:13;3.11;;;3.11;;
71183;SDS011;58887;51.980;4.464;2023-06-14T04:04:43;2.76;;;2.76;;
71183;SDS011;58887;51.980;4.464;2023-06-14T04:07:13;2.56;;;2.56;;
71183;SDS011;58887;51.980;4.464;2023-06-14T04:09:44;2.93;;;2.93;;
71183;SDS011;58887;51.980;4.464;2023-06-14T04:12:10;2.82;;;2.82;;
71183;SDS011;58887;51.980;4.464;2023-06-14T04:14:36;2.75;;;2.75;;
71183;SDS011;58887;51.980;4.464;2023-06-14T04:17:03;2.70;;;2.70;;
71183;SDS011;58887;51.980;4.464;2023-06-14T04:19:29;2.82;;;2.82;;
71183;SDS011;58887;51.980;4.464;2023-06-14T04:21:54;2.97;;;2.97;;
71183;SDS011;58887;51.980;4.464;2023-06-14T04:24:20;2.96;;;2.96;;
71183;SDS011;58887;51.980;4.464;2023-06-14T04:26:46;3.26;;;3.26;;
71183;SDS011;58887;51.980;4.464;2023-06-14T04:29:13;2.81;;;2.81;;
71183;SDS011;58887;51.980;4.464;2023-06-14T04:31:42;2.77;;;2.77;;
71183;SDS011;58887;51.980;4.464;2023-06-14T04:34:08;2.71;;;2.71;;
71183;SDS011;58887;51.980;4.464;2023-06-14T04:36:34;2.73;;;2.73;;
71183;SDS011;58887;51.980;4.464;2023-06-14T04:39:02;2.53;;;2.53;;
71183;SDS011;58887;51.980;4.464;2023-06-14T04:41:32;2.78;;;2.78;;
71183;SDS011;58887;51.980;4.464;2023-06-14T04:43:57;3.54;;;3.54;;
71183;SDS011;58887;51.980;4.464;2023-06-14T04:46:29;3.08;;;3.08;;
71183;SDS011;58887;51.980;4.464;2023-06-14T04:48:57;2.64;;;2.64;;
71183;SDS011;58887;51.980;4.464;2023-06-14T04:51:27;2.82;;;2.82;;
71183;SDS011;58887;51.980;4.464;2023-06-14T04:53:55;2.73;;;2.73;;
71183;SDS011;58887;51.980;4.464;2023-06-14T04:56:23;2.67;;;2.67;;
71183;SDS011;58887;51.980;4.464;2023-06-14T04:58:53;2.96;;;2.96;;
71183;SDS011;58887;51.980;4.464;2023-06-14T05:01:21;2.64;;;2.64;;
71183;SDS011;58887;51.980;4.464;2023-06-14T05:03:49;2.62;;;2.62;;
71183;SDS011;58887;51.980;4.464;2023-06-14T05:06:15;2.85;;;2.85;;
71183;SDS011;58887;51.980;4.464;2023-06-14T05:08:41;2.57;;;2.57;;
71183;SDS011;58887;51.980;4.464;2023-06-14T05:11:06;2.52;;;2.52;;
71183;SDS011;58887;51.980;4.464;2023-06-14T05:13:32;2.57;;;2.57;;
71183;SDS011;58887;51.980;4.464;2023-06-14T05:15:58;2.68;;;2.68;;
71183;SDS011;58887;51.980;4.464;2023-06-14T05:18:24;2.65;;;2.65;;
71183;SDS011;58887;51.980;4.464;2023-06-14T05:20:50;2.45;;;2.45;;
71183;SDS011;58887;51.980;4.464;2023-06-14T05:23:16;2.52;;;2.52;;
71183;SDS011;58887;51.980;4.464;2023-06-14T05:25:45;2.61;;;2.61;;
71183;SDS011;58887;51.980;4.464;2023-06-14T05:28:11;2.42;;;2.42;;
71183;SDS011;58887;51.980;4.464;2023-06-14T05:30:37;2.34;;;2.34;;
71183;SDS011;58887;51.980;4.464;2023-06-14T05:33:04;2.54;;;2.54;;
71183;SDS011;58887;51.980;4.464;2023-06-14T05:35:30;2.63;;;2.63;;
71183;SDS011;58887;51.980;4.464;2023-06-14T05:37:55;2.32;;;2.32;;
71183;SDS011;58887;51.980;4.464;2023-06-14T05:40:21;2.48;;;2.48;;
71183;SDS011;58887;51.980;4.464;2023-06-14T05:42:47;2.48;;;2.48;;
71183;SDS011;58887;51.980;4.464;2023-06-14T05:45:13;2.44;;;2.44;;
71183;SDS011;58887;51.980;4.464;2023-06-14T05:47:41;2.52;;;2.52;;
71183;SDS011;58887;51.980;4.464;2023-06-14T05:50:06;2.25;;;2.25;;
71183;SDS011;58887;51.980;4.464;2023-06-14T05:52:33;2.42;;;2.42;;
71183;SDS011;58887;51.980;4.464;2023-06-14T05:57:28;2.35;;;2.35;;
71183;SDS011;58887;51.980;4.464;2023-06-14T05:59:54;2.41;;;2.41;;
71183;SDS011;58887;51.980;4.464;2023-06-14T06:02:19;2.45;;;2.45;;
71183;SDS011;58887;51.980;4.464;2023-06-14T06:04:45;2.30;;;2.30;;
71183;SDS011;58887;51.980;4.464;2023-06-14T06:07:10;2.57;;;2.57;;
71183;SDS011;58887;51.980;4.464;2023-06-14T06:09:36;2.60;;;2.60;;
71183;SDS011;58887;51.980;4.464;2023-06-14T06:12:02;2.48;;;2.48;;
71183;SDS011;58887;51.980;4.464;2023-06-14T06:14:28;2.57;;;2.57;;
71183;SDS011;58887;51.980;4.464;2023-06-14T06:16:53;2.63;;;2.63;;
71183;SDS011;58887;51.980;4.464;2023-06-14T06:19:19;2.51;;;2.51;;
71183;SDS011;58887;51.980;4.464;2023-06-14T06:21:45;2.28;;;2.28;;
71183;SDS011;58887;51.980;4.464;2023-06-14T06:24:11;2.36;;;2.36;;
71183;SDS011;58887;51.980;4.464;2023-06-14T06:26:36;2.52;;;2.52;;
71183;SDS011;58887;51.980;4.464;2023-06-14T06:29:02;2.55;;;2.55;;
71183;SDS011;58887;51.980;4.464;2023-06-14T06:31:27;2.55;;;2.55;;
71183;SDS011;58887;51.980;4.464;2023-06-14T06:33:53;2.70;;;2.70;;
71183;SDS011;58887;51.980;4.464;2023-06-14T06:36:19;3.01;;;3.01;;
71183;SDS011;58887;51.980;4.464;2023-06-14T06:38:46;2.92;;;2.92;;
71183;SDS011;58887;51.980;4.464;2023-06-14T06:41:12;2.73;;;2.73;;
71183;SDS011;58887;51.980;4.464;2023-06-14T06:43:38;2.65;;;2.65;;
71183;SDS011;58887;51.980;4.464;2023-06-14T06:46:03;2.67;;;2.67;;
71183;SDS011;58887;51.980;4.464;2023-06-14T06:48:29;2.63;;;2.63;;
71183;SDS011;58887;51.980;4.464;2023-06-14T06:50:54;2.67;;;2.67;;
71183;SDS011;58887;51.980;4.464;2023-06-14T06:53:20;2.62;;;2.62;;
71183;SDS011;58887;51.980;4.464;2023-06-14T06:55:45;2.92;;;2.92;;
71183;SDS011;58887;51.980;4.464;2023-06-14T06:58:11;2.46;;;2.46;;
71183;SDS011;58887;51.980;4.464;2023-06-14T07:00:37;2.44;;;2.44;;
71183;SDS011;58887;51.980;4.464;2023-06-14T07:03:02;2.69;;;2.69;;
71183;SDS011;58887;51.980;4.464;2023-06-14T07:05:29;2.76;;;2.76;;
71183;SDS011;58887;51.980;4.464;2023-06-14T07:07:55;2.50;;;2.50;;
71183;SDS011;58887;51.980;4.464;2023-06-14T07:10:20;2.76;;;2.76;;
71183;SDS011;58887;51.980;4.464;2023-06-14T07:12:46;2.84;;;2.84;;
71183;SDS011;58887;51.980;4.464;2023-06-14T07:15:11;2.57;;;2.57;;
71183;SDS011;58887;51.980;4.464;2023-06-14T07:17:37;2.69;;;2.69;;
71183;SDS011;58887;51.980;4.464;2023-06-14T07:20:03;2.62;;;2.62;;
71183;SDS011;58887;51.980;4.464;2023-06-14T07:22:49;2.60;;;2.60;;
71183;SDS011;58887;51.980;4.464;2023-06-14T07:25:15;2.57;;;2.57;;
71183;SDS011;58887;51.980;4.464;2023-06-14T07:27:41;2.49;;;2.49;;
71183;SDS011;58887;51.980;4.464;2023-06-14T07:30:07;2.67;;;2.67;;
71183;SDS011;58887;51.980;4.464;2023-06-14T07:32:35;2.68;;;2.68;;
71183;SDS011;58887;51.980;4.464;2023-06-14T07:35:02;2.52;;;2.52;;
71183;SDS011;58887;51.980;4.464;2023-06-14T07:37:28;2.71;;;2.71;;
71183;SDS011;58887;51.980;4.464;2023-06-14T07:39:53;2.61;;;2.61;;
71183;SDS011;58887;51.980;4.464;2023-06-14T07:42:19;2.71;;;2.71;;
71183;SDS011;58887;51.980;4.464;2023-06-14T07:44:45;2.64;;;2.64;;
71183;SDS011;58887;51.980;4.464;2023-06-14T07:47:10;2.69;;;2.69;;
71183;SDS011;58887;51.980;4.464;2023-06-14T07:49:36;2.54;;;2.54;;
71183;SDS011;58887;51.980;4.464;2023-06-14T07:52:02;2.65;;;2.65;;
71183;SDS011;58887;51.980;4.464;2023-06-14T07:54:28;2.53;;;2.53;;
71183;SDS011;58887;51.980;4.464;2023-06-14T07:56:55;2.36;;;2.36;;
71183;SDS011;58887;51.980;4.464;2023-06-14T07:59:21;2.73;;;2.73;;
71183;SDS011;58887;51.980;4.464;2023-06-14T08:01:46;2.62;;;2.62;;
71183;SDS011;58887;51.980;4.464;2023-06-14T08:04:15;2.55;;;2.55;;
71183;SDS011;58887;51.980;4.464;2023-06-14T08:06:41;2.82;;;2.82;;
71183;SDS011;58887;51.980;4.464;2023-06-14T08:09:10;2.61;;;2.61;;
71183;SDS011;58887;51.980;4.464;2023-06-14T08:11:37;2.68;;;2.68;;
71183;SDS011;58887;51.980;4.464;2023-06-14T08:14:03;2.68;;;2.68;;
71183;SDS011;58887;51.980;4.464;2023-06-14T08:16:29;2.67;;;2.67;;
71183;SDS011;58887;51.980;4.464;2023-06-14T08:18:55;2.73;;;2.73;;
71183;SDS011;58887;51.980;4.464;2023-06-14T08:21:20;2.69;;;2.69;;
71183;SDS011;58887;51.980;4.464;2023-06-14T08:23:46;2.55;;;2.55;;
71183;SDS011;58887;51.980;4.464;2023-06-14T08:26:13;2.55;;;2.55;;
71183;SDS011;58887;51.980;4.464;2023-06-14T08:28:39;2.58;;;2.58;;
71183;SDS011;58887;51.980;4.464;2023-06-14T08:31:04;2.26;;;2.26;;
71183;SDS011;58887;51.980;4.464;2023-06-14T08:33:30;2.64;;;2.64;;
71183;SDS011;58887;51.980;4.464;2023-06-14T08:35:58;2.45;;;2.45;;
71183;SDS011;58887;51.980;4.464;2023-06-14T08:38:24;2.45;;;2.45;;
71183;SDS011;58887;51.980;4.464;2023-06-14T08:40:50;2.46;;;2.46;;
71183;SDS011;58887;51.980;4.464;2023-06-14T08:43:17;2.49;;;2.49;;
71183;SDS011;58887;51.980;4.464;2023-06-14T08:45:43;2.68;;;2.68;;
71183;SDS011;58887;51.980;4.464;2023-06-14T08:48:13;2.39;;;2.39;;
71183;SDS011;58887;51.980;4.464;2023-06-14T08:50:42;2.45;;;2.45;;
71183;SDS011;58887;51.980;4.464;2023-06-14T08:53:11;2.53;;;2.53;;
71183;SDS011;58887;51.980;4.464;2023-06-14T08:55:45;2.42;;;2.42;;
71183;SDS011;58887;51.980;4.464;2023-06-14T08:58:10;2.68;;;2.68;;
71183;SDS011;58887;51.980;4.464;2023-06-14T09:00:40;2.68;;;2.68;;
71183;SDS011;58887;51.980;4.464;2023-06-14T09:03:06;2.43;;;2.43;;
71183;SDS011;58887;51.980;4.464;2023-06-14T09:05:38;2.22;;;2.22;;
71183;SDS011;58887;51.980;4.464;2023-06-14T09:08:04;2.33;;;2.33;;
71183;SDS011;58887;51.980;4.464;2023-06-14T09:10:30;2.11;;;2.11;;
71183;SDS011;58887;51.980;4.464;2023-06-14T09:13:00;2.21;;;2.21;;
71183;SDS011;58887;51.980;4.464;2023-06-14T09:15:26;2.51;;;2.51;;
71183;SDS011;58887;51.980;4.464;2023-06-14T09:17:51;2.43;;;2.43;;
71183;SDS011;58887;51.980;4.464;2023-06-14T09:20:18;2.29;;;2.29;;
71183;SDS011;58887;51.980;4.464;2023-06-14T09:22:44;2.29;;;2.29;;
71183;SDS011;58887;51.980;4.464;2023-06-14T09:25:10;2.33;;;2.33;;
71183;SDS011;58887;51.980;4.464;2023-06-14T09:27:37;2.35;;;2.35;;
71183;SDS011;58887;51.980;4.464;2023-06-14T09:30:05;2.22;;;2.22;;
71183;SDS011;58887;51.980;4.464;2023-06-14T09:32:37;2.30;;;2.30;;
71183;SDS011;58887;51.980;4.464;2023-06-14T09:35:07;2.52;;;2.52;;
71183;SDS011;58887;51.980;4.464;2023-06-14T09:37:35;2.34;;;2.34;;
71183;SDS011;58887;51.980;4.464;2023-06-14T09:40:02;2.39;;;2.39;;
71183;SDS011;58887;51.980;4.464;2023-06-14T09:42:29;2.00;;;2.00;;
71183;SDS011;58887;51.980;4.464;2023-06-14T09:44:56;1.98;;;1.98;;
71183;SDS011;58887;51.980;4.464;2023-06-14T09:47:22;2.40;;;2.40;;
71183;SDS011;58887;51.980;4.464;2023-06-14T09:49:49;2.38;;;2.38;;
71183;SDS011;58887;51.980;4.464;2023-06-14T09:52:19;2.03;;;2.03;;
71183;SDS011;58887;51.980;4.464;2023-06-14T09:54:46;1.94;;;1.94;;
71183;SDS011;58887;51.980;4.464;2023-06-14T09:57:20;1.78;;;1.78;;
71183;SDS011;58887;51.980;4.464;2023-06-14T09:59:47;1.95;;;1.95;;
71183;SDS011;58887;51.980;4.464;2023-06-14T10:02:28;1.98;;;1.98;;
71183;SDS011;58887;51.980;4.464;2023-06-14T10:05:00;1.72;;;1.72;;
71183;SDS011;58887;51.980;4.464;2023-06-14T10:10:20;1.71;;;1.71;;
71183;SDS011;58887;51.980;4.464;2023-06-14T10:12:45;1.82;;;1.82;;
71183;SDS011;58887;51.980;4.464;2023-06-14T10:15:15;1.54;;;1.54;;
71183;SDS011;58887;51.980;4.464;2023-06-14T10:17:49;1.58;;;1.58;;
71183;SDS011;58887;51.980;4.464;2023-06-14T10:23:00;1.49;;;1.49;;
71183;SDS011;58887;51.980;4.464;2023-06-14T10:25:30;1.69;;;1.69;;
71183;SDS011;58887;51.980;4.464;2023-06-14T10:33:34;1.53;;;1.53;;
71183;SDS011;58887;51.980;4.464;2023-06-14T10:36:29;1.64;;;1.64;;
71183;SDS011;58887;51.980;4.464;2023-06-14T10:41:51;1.36;;;1.36;;
71183;SDS011;58887;51.980;4.464;2023-06-14T10:46:47;1.47;;;1.47;;
71183;SDS011;58887;51.980;4.464;2023-06-14T10:49:16;1.47;;;1.47;;
71183;SDS011;58887;51.980;4.464;2023-06-14T10:51:46;1.24;;;1.24;;
71183;SDS011;58887;51.980;4.464;2023-06-14T10:54:15;1.12;;;1.12;;
71183;SDS011;58887;51.980;4.464;2023-06-14T10:56:47;1.56;;;1.56;;
71183;SDS011;58887;51.980;4.464;2023-06-14T10:59:13;1.39;;;1.39;;
71183;SDS011;58887;51.980;4.464;2023-06-14T11:04:14;1.45;;;1.45;;
71183;SDS011;58887;51.980;4.464;2023-06-14T11:06:49;1.49;;;1.49;;
71183;SDS011;58887;51.980;4.464;2023-06-14T11:12:21;1.30;;;1.30;;
71183;SDS011;58887;51.980;4.464;2023-06-14T11:14:50;1.43;;;1.43;;
71183;SDS011;58887;51.980;4.464;2023-06-14T11:17:15;1.14;;;1.14;;
71183;SDS011;58887;51.980;4.464;2023-06-14T11:19:41;1.29;;;1.29;;
71183;SDS011;58887;51.980;4.464;2023-06-14T11:22:06;1.27;;;1.27;;
71183;SDS011;58887;51.980;4.464;2023-06-14T11:24:32;1.23;;;1.23;;
71183;SDS011;58887;51.980;4.464;2023-06-14T11:26:58;1.24;;;1.24;;
71183;SDS011;58887;51.980;4.464;2023-06-14T11:29:23;1.23;;;1.23;;
71183;SDS011;58887;51.980;4.464;2023-06-14T11:31:50;1.22;;;1.22;;
71183;SDS011;58887;51.980;4.464;2023-06-14T11:34:15;1.11;;;1.11;;
71183;SDS011;58887;51.980;4.464;2023-06-14T11:36:42;1.23;;;1.23;;
71183;SDS011;58887;51.980;4.464;2023-06-14T11:39:08;1.24;;;1.24;;
71183;SDS011;58887;51.980;4.464;2023-06-14T11:41:52;1.22;;;1.22;;
71183;SDS011;58887;51.980;4.464;2023-06-14T11:44:17;1.00;;;1.00;;
71183;SDS011;58887;51.980;4.464;2023-06-14T11:46:43;1.24;;;1.24;;
71183;SDS011;58887;51.980;4.464;2023-06-14T11:49:09;1.16;;;1.16;;
71183;SDS011;58887;51.980;4.464;2023-06-14T11:51:35;1.18;;;1.18;;
71183;SDS011;58887;51.980;4.464;2023-06-14T11:54:02;1.35;;;1.35;;
71183;SDS011;58887;51.980;4.464;2023-06-14T11:56:28;1.28;;;1.28;;
71183;SDS011;58887;51.980;4.464;2023-06-14T11:58:55;0.98;;;0.98;;
71183;SDS011;58887;51.980;4.464;2023-06-14T12:01:22;0.87;;;0.87;;
71183;SDS011;58887;51.980;4.464;2023-06-14T12:03:48;1.07;;;1.07;;
71183;SDS011;58887;51.980;4.464;2023-06-14T12:06:15;1.15;;;1.15;;
71183;SDS011;58887;51.980;4.464;2023-06-14T12:08:43;1.15;;;1.15;;
71183;SDS011;58887;51.980;4.464;2023-06-14T12:11:12;1.10;;;1.10;;
71183;SDS011;58887;51.980;4.464;2023-06-14T12:13:41;1.22;;;1.22;;
71183;SDS011;58887;51.980;4.464;2023-06-14T12:16:09;1.06;;;1.06;;
71183;SDS011;58887;51.980;4.464;2023-06-14T12:18:37;0.97;;;0.97;;
71183;SDS011;58887;51.980;4.464;2023-06-14T12:21:04;1.04;;;1.04;;
71183;SDS011;58887;51.980;4.464;2023-06-14T12:23:45;1.02;;;1.02;;
71183;SDS011;58887;51.980;4.464;2023-06-14T12:26:12;1.05;;;1.05;;
71183;SDS011;58887;51.980;4.464;2023-06-14T12:28:40;1.15;;;1.15;;
71183;SDS011;58887;51.980;4.464;2023-06-14T12:31:07;1.09;;;1.09;;
71183;SDS011;58887;51.980;4.464;2023-06-14T12:33:33;1.05;;;1.05;;
71183;SDS011;58887;51.980;4.464;2023-06-14T12:35:59;1.04;;;1.04;;
71183;SDS011;58887;51.980;4.464;2023-06-14T12:38:24;1.11;;;1.11;;
71183;SDS011;58887;51.980;4.464;2023-06-14T12:40:50;1.27;;;1.27;;
71183;SDS011;58887;51.980;4.464;2023-06-14T12:43:16;1.10;;;1.10;;
71183;SDS011;58887;51.980;4.464;2023-06-14T12:45:41;1.13;;;1.13;;
71183;SDS011;58887;51.980;4.464;2023-06-14T12:48:07;0.92;;;0.92;;
71183;SDS011;58887;51.980;4.464;2023-06-14T12:50:34;1.14;;;1.14;;
71183;SDS011;58887;51.980;4.464;2023-06-14T12:52:59;1.18;;;1.18;;
71183;SDS011;58887;51.980;4.464;2023-06-14T12:55:25;1.09;;;1.09;;
71183;SDS011;58887;51.980;4.464;2023-06-14T12:57:52;1.27;;;1.27;;
71183;SDS011;58887;51.980;4.464;2023-06-14T13:00:17;1.06;;;1.06;;
71183;SDS011;58887;51.980;4.464;2023-06-14T13:02:43;1.03;;;1.03;;
71183;SDS011;58887;51.980;4.464;2023-06-14T13:05:09;0.99;;;0.99;;
71183;SDS011;58887;51.980;4.464;2023-06-14T13:07:34;1.01;;;1.01;;
71183;SDS011;58887;51.980;4.464;2023-06-14T13:10:00;1.05;;;1.05;;
71183;SDS011;58887;51.980;4.464;2023-06-14T13:12:27;1.22;;;1.22;;
71183;SDS011;58887;51.980;4.464;2023-06-14T13:14:58;1.13;;;1.13;;
71183;SDS011;58887;51.980;4.464;2023-06-14T13:17:25;0.99;;;0.99;;
71183;SDS011;58887;51.980;4.464;2023-06-14T13:19:50;1.17;;;1.17;;
71183;SDS011;58887;51.980;4.464;2023-06-14T13:22:16;1.12;;;1.12;;
71183;SDS011;58887;51.980;4.464;2023-06-14T13:24:41;1.08;;;1.08;;
71183;SDS011;58887;51.980;4.464;2023-06-14T13:27:07;1.02;;;1.02;;
71183;SDS011;58887;51.980;4.464;2023-06-14T13:29:32;1.14;;;1.14;;
71183;SDS011;58887;51.980;4.464;2023-06-14T13:32:00;1.04;;;1.04;;
71183;SDS011;58887;51.980;4.464;2023-06-14T13:34:26;1.16;;;1.16;;
71183;SDS011;58887;51.980;4.464;2023-06-14T13:36:52;1.12;;;1.12;;
71183;SDS011;58887;51.980;4.464;2023-06-14T13:39:18;1.13;;;1.13;;
71183;SDS011;58887;51.980;4.464;2023-06-14T13:41:44;1.04;;;1.04;;
71183;SDS011;58887;51.980;4.464;2023-06-14T13:44:09;0.94;;;0.94;;
71183;SDS011;58887;51.980;4.464;2023-06-14T13:46:39;0.91;;;0.91;;
71183;SDS011;58887;51.980;4.464;2023-06-14T13:49:04;1.02;;;1.02;;
71183;SDS011;58887;51.980;4.464;2023-06-14T13:51:30;0.97;;;0.97;;
71183;SDS011;58887;51.980;4.464;2023-06-14T13:53:56;1.09;;;1.09;;
71183;SDS011;58887;51.980;4.464;2023-06-14T13:56:21;0.98;;;0.98;;
71183;SDS011;58887;51.980;4.464;2023-06-14T13:58:49;0.93;;;0.93;;
71183;SDS011;58887;51.980;4.464;2023-06-14T14:01:15;1.11;;;1.11;;
71183;SDS011;58887;51.980;4.464;2023-06-14T14:03:40;1.10;;;1.10;;
71183;SDS011;58887;51.980;4.464;2023-06-14T14:06:06;1.08;;;1.08;;
71183;SDS011;58887;51.980;4.464;2023-06-14T14:08:32;0.98;;;0.98;;
71183;SDS011;58887;51.980;4.464;2023-06-14T14:10:58;1.16;;;1.16;;
71183;SDS011;58887;51.980;4.464;2023-06-14T14:13:23;1.13;;;1.13;;
71183;SDS011;58887;51.980;4.464;2023-06-14T14:15:50;0.88;;;0.88;;
71183;SDS011;58887;51.980;4.464;2023-06-14T14:18:15;1.22;;;1.22;;
71183;SDS011;58887;51.980;4.464;2023-06-14T14:20:41;0.96;;;0.96;;
71183;SDS011;58887;51.980;4.464;2023-06-14T14:23:06;1.21;;;1.21;;
71183;SDS011;58887;51.980;4.464;2023-06-14T14:25:32;1.32;;;1.32;;
71183;SDS011;58887;51.980;4.464;2023-06-14T14:27:57;1.19;;;1.19;;
71183;SDS011;58887;51.980;4.464;2023-06-14T14:30:23;1.34;;;1.34;;
71183;SDS011;58887;51.980;4.464;2023-06-14T14:32:49;1.14;;;1.14;;
71183;SDS011;58887;51.980;4.464;2023-06-14T14:35:16;1.20;;;1.20;;
71183;SDS011;58887;51.980;4.464;2023-06-14T14:37:43;0.93;;;0.93;;
71183;SDS011;58887;51.980;4.464;2023-06-14T14:40:09;1.18;;;1.18;;
71183;SDS011;58887;51.980;4.464;2023-06-14T14:42:36;1.06;;;1.06;;
71183;SDS011;58887;51.980;4.464;2023-06-14T14:45:02;0.99;;;0.99;;
71183;SDS011;58887;51.980;4.464;2023-06-14T14:47:28;1.02;;;1.02;;
71183;SDS011;58887;51.980;4.464;2023-06-14T14:49:53;1.04;;;1.04;;
71183;SDS011;58887;51.980;4.464;2023-06-14T14:52:19;1.20;;;1.20;;
71183;SDS011;58887;51.980;4.464;2023-06-14T14:54:45;1.05;;;1.05;;
71183;SDS011;58887;51.980;4.464;2023-06-14T14:57:10;1.10;;;1.10;;
71183;SDS011;58887;51.980;4.464;2023-06-14T14:59:35;1.14;;;1.14;;
71183;SDS011;58887;51.980;4.464;2023-06-14T15:02:01;1.01;;;1.01;;
71183;SDS011;58887;51.980;4.464;2023-06-14T15:04:26;1.04;;;1.04;;
71183;SDS011;58887;51.980;4.464;2023-06-14T15:06:52;1.23;;;1.23;;
71183;SDS011;58887;51.980;4.464;2023-06-14T15:09:17;1.04;;;1.04;;
71183;SDS011;58887;51.980;4.464;2023-06-14T15:11:43;1.22;;;1.22;;
71183;SDS011;58887;51.980;4.464;2023-06-14T15:14:09;1.18;;;1.18;;